createdAt,value
2019-03-01T00:02:13.856Z,4.80
2019-03-01T00:05:01.442Z,4.80
2019-03-01T00:07:43.180Z,4.80
2019-03-01T00:10:31.310Z,4.70
2019-03-01T00:13:48.017Z,4.60
2019-03-01T00:16:45.644Z,4.50
2019-03-01T00:20:02.253Z,4.50
2019-03-01T00:22:51.803Z,4.40
2019-03-01T00:27:34.272Z,4.30
2019-03-01T00:30:51.920Z,4.40
2019-03-01T00:33:36.899Z,4.40
2019-03-01T00:36:19.575Z,4.40
2019-03-01T00:39:00.387Z,4.30
2019-03-01T00:41:47.228Z,4.30
2019-03-01T00:44:32.407Z,4.30
2019-03-01T00:47:02.504Z,4.30
2019-03-01T00:49:33.463Z,4.20
2019-03-01T00:52:03.604Z,4.20
2019-03-01T00:54:34.210Z,4.20
2019-03-01T00:57:04.475Z,4.20
2019-03-01T00:59:34.647Z,4.20
2019-03-01T01:02:05.310Z,4.20
2019-03-01T01:04:35.499Z,4.10
2019-03-01T01:09:35.409Z,3.90
2019-03-01T01:12:05.518Z,3.80
2019-03-01T01:14:38.077Z,3.70
2019-03-01T01:17:08.522Z,3.60
2019-03-01T01:19:38.652Z,3.50
2019-03-01T01:22:08.688Z,3.30
2019-03-01T01:24:38.771Z,3.20
2019-03-01T01:27:08.856Z,3.10
2019-03-01T01:29:38.980Z,3.00
2019-03-01T01:32:09.304Z,2.90
2019-03-01T01:34:39.413Z,2.80
2019-03-01T01:37:09.710Z,2.80
2019-03-01T01:39:39.815Z,2.70
2019-03-01T01:42:09.952Z,2.60
2019-03-01T01:44:40.120Z,2.60
2019-03-01T01:47:10.231Z,2.60
2019-03-01T01:49:40.314Z,2.50
2019-03-01T01:52:10.379Z,2.60
2019-03-01T01:54:40.532Z,2.70
2019-03-01T01:57:10.575Z,2.90
2019-03-01T01:59:40.652Z,3.00
2019-03-01T02:02:10.763Z,3.10
2019-03-01T02:04:40.897Z,3.10
2019-03-01T02:07:11.014Z,3.20
2019-03-01T02:09:41.213Z,3.20
2019-03-01T02:12:11.624Z,3.20
2019-03-01T02:14:41.740Z,3.10
2019-03-01T02:17:12.059Z,3.00
2019-03-01T02:19:42.205Z,3.00
2019-03-01T02:22:12.323Z,3.00
2019-03-01T02:24:42.509Z,3.00
2019-03-01T02:27:22.103Z,2.90
2019-03-01T02:29:52.218Z,2.90
2019-03-01T02:32:28.995Z,2.90
2019-03-01T02:34:59.109Z,2.90
2019-03-01T02:37:29.211Z,2.90
2019-03-01T02:39:59.346Z,2.90
2019-03-01T02:42:29.472Z,3.00
2019-03-01T02:44:59.641Z,3.10
2019-03-01T02:47:29.749Z,3.10
2019-03-01T02:49:59.893Z,3.20
2019-03-01T02:52:30.012Z,3.30
2019-03-01T02:55:00.256Z,3.30
2019-03-01T02:57:30.358Z,3.30
2019-03-01T03:00:01.228Z,3.20
2019-03-01T03:02:31.360Z,3.10
2019-03-01T03:06:25.498Z,3.00
2019-03-01T03:08:55.754Z,2.80
2019-03-01T03:11:25.904Z,2.60
2019-03-01T03:13:56.000Z,2.50
2019-03-01T03:16:26.309Z,2.40
2019-03-01T03:18:56.429Z,2.40
2019-03-01T03:21:26.501Z,2.30
2019-03-01T03:23:56.624Z,2.30
2019-03-01T03:26:27.115Z,2.30
2019-03-01T03:28:57.244Z,2.30
2019-03-01T03:31:27.364Z,2.20
2019-03-01T03:33:57.483Z,2.10
2019-03-01T03:36:27.664Z,2.00
2019-03-01T03:38:57.801Z,2.00
2019-03-01T03:41:27.983Z,2.00
2019-03-01T03:43:58.046Z,1.90
2019-03-01T03:46:28.161Z,1.80
2019-03-01T03:48:58.302Z,1.60
2019-03-01T03:51:28.430Z,1.60
2019-03-01T03:53:58.539Z,1.60
2019-03-01T03:56:28.976Z,1.40
2019-03-01T03:58:59.115Z,1.30
2019-03-01T04:01:29.292Z,1.10
2019-03-01T04:03:59.451Z,0.80
2019-03-01T04:06:29.592Z,0.70
2019-03-01T04:09:00.036Z,0.60
2019-03-01T04:11:30.205Z,0.60
2019-03-01T04:14:00.267Z,0.50
2019-03-01T04:16:30.512Z,0.70
2019-03-01T04:19:00.569Z,0.80
2019-03-01T04:21:30.715Z,0.90
2019-03-01T04:24:00.848Z,0.90
2019-03-01T04:26:31.032Z,1.00
2019-03-01T04:29:01.175Z,1.00
2019-03-01T04:31:31.293Z,1.00
2019-03-01T04:34:01.384Z,1.00
2019-03-01T04:36:31.542Z,1.10
2019-03-01T04:39:01.668Z,1.20
2019-03-01T04:41:31.824Z,1.30
2019-03-01T04:46:31.442Z,1.50
2019-03-01T04:49:01.571Z,1.50
2019-03-01T04:51:39.921Z,1.50
2019-03-01T04:54:01.846Z,1.50
2019-03-01T04:56:31.959Z,1.70
2019-03-01T04:59:02.088Z,1.80
2019-03-01T05:01:32.179Z,1.70
2019-03-01T05:04:02.263Z,1.70
2019-03-01T05:06:32.382Z,1.70
2019-03-01T05:09:02.542Z,1.60
2019-03-01T05:11:33.118Z,1.60
2019-03-01T05:14:03.263Z,1.60
2019-03-01T05:16:33.435Z,1.60
2019-03-01T05:19:03.521Z,1.70
2019-03-01T05:24:03.011Z,1.70
2019-03-01T05:26:33.063Z,1.80
2019-03-01T05:29:03.445Z,1.90
2019-03-01T05:31:33.532Z,1.90
2019-03-01T05:34:03.652Z,2.00
2019-03-01T05:36:33.786Z,2.00
2019-03-01T05:39:04.393Z,2.10
2019-03-01T05:41:34.510Z,2.20
2019-03-01T05:44:04.680Z,2.20
2019-03-01T05:46:34.802Z,2.30
2019-03-01T05:49:04.871Z,2.30
2019-03-01T05:51:35.003Z,2.30
2019-03-01T05:54:05.079Z,2.10
2019-03-01T05:56:35.244Z,2.00
2019-03-01T05:59:14.851Z,1.80
2019-03-01T06:01:52.187Z,1.70
2019-03-01T06:04:29.508Z,1.60
2019-03-01T06:07:13.828Z,1.60
2019-03-01T06:09:51.578Z,1.60
2019-03-01T06:13:36.040Z,1.60
2019-03-01T06:16:16.679Z,1.60
2019-03-01T06:18:59.374Z,1.60
2019-03-01T06:21:47.981Z,1.50
2019-03-01T06:24:29.540Z,1.50
2019-03-01T06:29:51.272Z,1.50
2019-03-01T06:32:32.047Z,1.60
2019-03-01T06:35:30.115Z,1.70
2019-03-01T06:38:21.390Z,1.80
2019-03-01T06:41:20.725Z,2.00
2019-03-01T06:44:02.368Z,2.10
2019-03-01T06:46:43.672Z,2.40
2019-03-01T06:49:18.633Z,2.70
2019-03-01T06:51:48.808Z,2.80
2019-03-01T06:54:18.900Z,3.00
2019-03-01T06:56:49.719Z,3.20
2019-03-01T06:59:19.795Z,3.30
2019-03-01T07:01:49.972Z,3.40
2019-03-01T07:04:20.407Z,3.50
2019-03-01T07:06:50.550Z,3.40
2019-03-01T07:09:20.691Z,3.40
2019-03-01T07:11:50.846Z,3.40
2019-03-01T07:14:20.867Z,3.40
2019-03-01T07:16:50.971Z,3.40
2019-03-01T07:19:21.089Z,3.40
2019-03-01T07:21:51.167Z,3.50
2019-03-01T07:24:21.369Z,3.60
2019-03-01T07:26:51.891Z,3.60
2019-03-01T07:29:21.991Z,3.80
2019-03-01T07:31:52.161Z,3.90
2019-03-01T07:34:22.149Z,4.00
2019-03-01T07:36:52.218Z,4.00
2019-03-01T07:41:51.974Z,3.90
2019-03-01T07:44:22.281Z,3.80
2019-03-01T07:46:54.074Z,3.80
2019-03-01T07:49:23.301Z,3.80
2019-03-01T07:51:53.854Z,3.80
2019-03-01T07:54:24.191Z,3.80
2019-03-01T07:56:54.596Z,3.70
2019-03-01T07:59:24.687Z,3.70
2019-03-01T08:01:55.924Z,3.80
2019-03-01T08:04:28.808Z,3.80
2019-03-01T08:06:55.243Z,3.80
2019-03-01T08:09:25.345Z,3.70
2019-03-01T08:11:55.487Z,3.70
2019-03-01T08:14:28.055Z,3.70
2019-03-01T08:16:56.167Z,3.70
2019-03-01T08:19:26.020Z,3.80
2019-03-01T08:21:56.082Z,4.00
2019-03-01T08:24:26.131Z,4.00
2019-03-01T08:26:57.122Z,4.00
2019-03-01T08:29:26.374Z,4.10
2019-03-01T08:31:56.815Z,4.00
2019-03-01T08:34:26.863Z,3.90
2019-03-01T08:36:56.995Z,3.90
2019-03-01T08:39:27.004Z,3.90
2019-03-01T08:42:00.171Z,3.90
2019-03-01T08:44:27.219Z,3.80
2019-03-01T08:46:57.305Z,3.70
2019-03-01T08:49:27.362Z,3.80
2019-03-01T08:51:58.506Z,3.80
2019-03-01T08:54:27.650Z,3.80
2019-03-01T08:56:57.701Z,3.80
2019-03-01T08:59:27.734Z,3.90
2019-03-01T09:01:57.820Z,4.00
2019-03-01T09:04:28.288Z,4.00
2019-03-01T09:06:58.389Z,4.10
2019-03-01T09:09:28.405Z,4.10
2019-03-01T09:11:58.522Z,4.10
2019-03-01T09:14:28.721Z,4.10
2019-03-01T09:16:58.817Z,4.20
2019-03-01T09:19:29.264Z,4.20
2019-03-01T09:21:59.543Z,4.30
2019-03-01T09:24:30.038Z,4.30
2019-03-01T09:26:59.746Z,4.40
2019-03-01T09:29:29.880Z,4.40
2019-03-01T09:31:59.964Z,4.60
2019-03-01T09:34:32.256Z,4.70
2019-03-01T09:37:00.284Z,4.40
2019-03-01T09:39:32.498Z,4.10
2019-03-01T09:42:05.377Z,4.20
2019-03-01T09:44:30.686Z,4.50
2019-03-01T09:49:30.368Z,4.40
2019-03-01T09:52:00.484Z,4.60
2019-03-01T09:54:30.542Z,4.70
2019-03-01T09:57:00.996Z,4.80
2019-03-01T09:59:31.004Z,4.80
2019-03-01T10:02:01.424Z,4.90
2019-03-01T10:04:31.898Z,4.90
2019-03-01T10:07:02.009Z,5.00
2019-03-01T10:09:32.029Z,5.10
2019-03-01T10:12:02.103Z,5.10
2019-03-01T10:14:32.128Z,4.90
2019-03-01T10:17:02.217Z,4.80
2019-03-01T10:19:32.277Z,4.80
2019-03-01T10:22:02.396Z,4.70
2019-03-01T10:24:32.456Z,4.70
2019-03-01T10:27:03.104Z,4.60
2019-03-01T10:29:32.711Z,4.60
2019-03-01T10:32:02.826Z,4.50
2019-03-01T10:34:32.842Z,4.60
2019-03-01T10:37:02.923Z,4.70
2019-03-01T10:39:32.961Z,4.80
2019-03-01T10:42:03.052Z,4.90
2019-03-01T10:44:33.072Z,4.90
2019-03-01T10:47:03.192Z,4.90
2019-03-01T10:49:33.220Z,4.80
2019-03-01T10:52:03.483Z,4.90
2019-03-01T10:57:02.872Z,4.50
2019-03-01T10:59:32.944Z,4.50
2019-03-01T11:02:02.962Z,4.40
2019-03-01T11:04:33.703Z,4.40
2019-03-01T11:07:03.776Z,4.40
2019-03-01T11:09:33.866Z,4.40
2019-03-01T11:12:03.977Z,4.50
2019-03-01T11:14:34.105Z,4.50
2019-03-01T11:17:04.231Z,4.50
2019-03-01T11:19:34.355Z,4.60
2019-03-01T11:22:04.529Z,4.50
2019-03-01T11:24:34.612Z,4.40
2019-03-01T11:27:12.679Z,4.40
2019-03-01T11:29:34.880Z,4.30
2019-03-01T11:32:04.971Z,4.10
2019-03-01T11:34:36.234Z,3.90
2019-03-01T11:37:05.215Z,4.00
2019-03-01T11:39:35.303Z,4.10
2019-03-01T11:42:05.398Z,4.00
2019-03-01T11:44:35.468Z,4.00
2019-03-01T11:47:05.556Z,3.90
2019-03-01T11:49:35.696Z,3.90
2019-03-01T11:52:05.764Z,3.80
2019-03-01T11:54:35.841Z,3.70
2019-03-01T11:57:05.932Z,3.70
2019-03-01T11:59:36.030Z,3.70
2019-03-01T12:02:06.088Z,3.90
2019-03-01T12:04:36.391Z,3.90
2019-03-01T12:07:06.453Z,4.00
2019-03-01T12:09:36.552Z,3.90
2019-03-01T12:12:06.597Z,3.90
2019-03-01T12:14:36.662Z,3.80
2019-03-01T12:17:06.771Z,3.60
2019-03-01T12:19:36.876Z,3.70
2019-03-01T12:22:06.925Z,3.80
2019-03-01T12:24:37.004Z,3.80
2019-03-01T12:27:07.056Z,3.90
2019-03-01T12:29:37.135Z,3.90
2019-03-01T12:32:07.154Z,4.10
2019-03-01T12:34:37.267Z,4.20
2019-03-01T12:37:07.314Z,4.20
2019-03-01T12:39:37.399Z,4.20
2019-03-01T12:42:07.440Z,4.20
2019-03-01T12:44:37.510Z,3.90
2019-03-01T12:47:07.592Z,3.90
2019-03-01T12:49:37.709Z,3.90
2019-03-01T12:52:07.740Z,4.00
2019-03-01T12:54:37.835Z,3.90
2019-03-01T12:57:07.881Z,4.00
2019-03-01T12:59:38.252Z,4.00
2019-03-01T13:02:08.302Z,4.00
2019-03-01T13:04:38.920Z,3.80
2019-03-01T13:07:10.494Z,3.90
2019-03-01T13:09:39.169Z,3.90
2019-03-01T13:12:09.202Z,3.80
2019-03-01T13:14:39.554Z,3.90
2019-03-01T13:17:09.387Z,3.80
2019-03-01T13:19:39.496Z,3.90
2019-03-01T13:22:09.575Z,3.90
2019-03-01T13:24:40.620Z,3.80
2019-03-01T13:27:10.901Z,3.80
2019-03-01T13:29:40.025Z,3.80
2019-03-01T13:32:10.034Z,3.90
2019-03-01T13:34:40.143Z,4.00
2019-03-01T13:37:14.716Z,4.10
2019-03-01T13:39:40.383Z,4.20
2019-03-01T13:42:13.331Z,4.10
2019-03-01T13:44:40.738Z,4.00
2019-03-01T13:47:10.750Z,3.90
2019-03-01T13:49:40.875Z,3.80
2019-03-01T13:52:10.913Z,4.10
2019-03-01T13:54:42.408Z,4.30
2019-03-01T13:57:11.451Z,4.20
2019-03-01T13:59:43.871Z,4.10
2019-03-01T14:02:11.479Z,4.20
2019-03-01T14:04:42.172Z,4.30
2019-03-01T14:07:12.341Z,4.50
2019-03-01T14:09:42.433Z,4.40
2019-03-01T14:12:12.465Z,4.40
2019-03-01T14:14:42.591Z,4.40
2019-03-01T14:17:12.643Z,4.70
2019-03-01T14:19:43.082Z,4.80
2019-03-01T14:22:13.980Z,5.00
2019-03-01T14:24:42.953Z,5.10
2019-03-01T14:27:13.104Z,5.20
2019-03-01T14:29:43.163Z,5.30
2019-03-01T14:32:15.366Z,5.60
2019-03-01T14:34:47.675Z,5.70
2019-03-01T14:37:15.119Z,5.80
2019-03-01T14:39:45.376Z,5.80
2019-03-01T14:44:43.221Z,5.30
2019-03-01T14:47:13.282Z,5.00
2019-03-01T14:49:43.347Z,5.00
2019-03-01T14:52:13.383Z,5.00
2019-03-01T14:54:45.158Z,4.70
2019-03-01T14:57:20.187Z,4.60
2019-03-01T14:59:57.679Z,4.60
2019-03-01T15:02:40.638Z,4.50
2019-03-01T15:05:17.069Z,4.50
2019-03-01T15:10:10.105Z,4.70
2019-03-01T15:12:40.180Z,4.70
2019-03-01T15:15:11.450Z,4.80
2019-03-01T15:17:41.665Z,4.80
2019-03-01T15:20:12.789Z,4.80
2019-03-01T15:22:45.594Z,4.80
2019-03-01T15:25:13.491Z,4.90
2019-03-01T15:27:43.528Z,5.00
2019-03-01T15:30:14.392Z,5.00
2019-03-01T15:32:44.467Z,5.10
2019-03-01T15:35:14.560Z,4.90
2019-03-01T15:37:44.983Z,5.00
2019-03-01T15:40:15.210Z,5.00
2019-03-01T15:42:45.293Z,5.10
2019-03-01T15:45:15.450Z,5.10
2019-03-01T15:47:45.523Z,5.10
2019-03-01T15:50:15.662Z,5.10
2019-03-01T15:52:49.676Z,5.00
2019-03-01T15:55:15.963Z,4.90
2019-03-01T15:57:45.988Z,4.80
2019-03-01T16:00:16.771Z,4.80
2019-03-01T16:02:49.921Z,4.60
2019-03-01T16:05:17.358Z,4.50
2019-03-01T16:07:47.448Z,4.40
2019-03-01T16:10:17.610Z,4.30
2019-03-01T16:12:47.675Z,4.20
2019-03-01T16:15:18.097Z,4.20
2019-03-01T16:17:48.135Z,4.20
2019-03-01T16:20:18.263Z,4.10
2019-03-01T16:22:50.998Z,4.10
2019-03-01T16:27:50.763Z,4.20
2019-03-01T16:30:18.370Z,4.10
2019-03-01T16:32:50.563Z,4.10
2019-03-01T16:35:18.672Z,4.10
2019-03-01T16:37:49.947Z,4.10
2019-03-01T16:40:20.217Z,4.10
2019-03-01T16:42:54.329Z,4.10
2019-03-01T16:45:21.012Z,4.10
2019-03-01T16:47:50.579Z,4.10
2019-03-01T16:50:20.691Z,4.10
2019-03-01T16:52:50.821Z,4.10
2019-03-01T16:55:20.974Z,4.00
2019-03-01T16:57:52.280Z,3.90
2019-03-01T17:00:21.412Z,3.80
2019-03-01T17:02:51.604Z,3.70
2019-03-01T17:05:22.396Z,3.70
2019-03-01T17:07:52.419Z,3.70
2019-03-01T17:11:46.700Z,3.70
2019-03-01T17:14:16.764Z,3.60
2019-03-01T17:16:46.865Z,3.50
2019-03-01T17:19:16.917Z,3.40
2019-03-01T17:21:50.697Z,3.40
2019-03-01T17:24:17.143Z,3.40
2019-03-01T17:26:47.229Z,3.30
2019-03-01T17:29:17.250Z,3.30
2019-03-01T17:31:47.315Z,3.20
2019-03-01T17:34:17.338Z,3.10
2019-03-01T17:36:49.936Z,3.10
2019-03-01T17:39:20.074Z,3.10
2019-03-01T17:41:48.455Z,3.20
2019-03-01T17:44:17.873Z,3.20
2019-03-01T17:46:47.951Z,3.30
2019-03-01T17:49:18.008Z,3.30
2019-03-01T17:51:48.110Z,3.30
2019-03-01T17:54:19.085Z,3.30
2019-03-01T17:56:48.337Z,3.40
2019-03-01T17:59:18.351Z,3.40
2019-03-01T18:01:48.462Z,3.40
2019-03-01T18:04:18.506Z,3.30
2019-03-01T18:06:51.346Z,3.30
2019-03-01T18:09:18.734Z,3.20
2019-03-01T18:11:48.828Z,3.20
2019-03-01T18:14:18.863Z,3.10
2019-03-01T18:16:48.969Z,3.10
2019-03-01T18:21:50.048Z,2.90
2019-03-01T18:24:18.547Z,2.80
2019-03-01T18:26:48.629Z,2.70
2019-03-01T18:29:18.660Z,2.60
2019-03-01T18:31:50.239Z,2.60
2019-03-01T18:34:18.859Z,2.50
2019-03-01T18:36:49.035Z,2.40
2019-03-01T18:39:19.082Z,2.30
2019-03-01T18:41:49.177Z,2.20
2019-03-01T18:44:22.310Z,2.10
2019-03-01T18:46:51.709Z,2.10
2019-03-01T18:49:19.734Z,2.00
2019-03-01T18:51:49.524Z,2.10
2019-03-01T18:54:19.554Z,2.10
2019-03-01T18:56:49.663Z,2.00
2019-03-01T18:59:21.718Z,1.90
2019-03-01T19:01:49.819Z,1.90
2019-03-01T19:04:29.383Z,1.80
2019-03-01T19:06:51.440Z,1.70
2019-03-01T19:09:20.762Z,1.60
2019-03-01T19:11:50.883Z,1.60
2019-03-01T19:14:20.941Z,1.50
2019-03-01T19:16:51.052Z,1.50
2019-03-01T19:19:23.972Z,1.40
2019-03-01T19:21:52.653Z,1.40
2019-03-01T19:24:21.353Z,1.30
2019-03-01T19:26:51.470Z,1.30
2019-03-01T19:29:21.521Z,1.20
2019-03-01T19:31:51.629Z,1.00
2019-03-01T19:34:21.665Z,0.90
2019-03-01T19:36:51.795Z,0.80
2019-03-01T19:39:22.999Z,0.80
2019-03-01T19:41:54.635Z,0.60
2019-03-01T19:44:25.677Z,0.60
2019-03-01T19:46:53.587Z,0.50
2019-03-01T19:49:26.659Z,0.40
2019-03-01T19:51:56.838Z,0.40
2019-03-01T19:54:26.966Z,0.40
2019-03-01T19:56:57.668Z,0.30
2019-03-01T19:59:27.279Z,0.20
2019-03-01T20:01:57.572Z,0.10
2019-03-01T20:04:27.813Z,0.10
2019-03-01T20:06:58.143Z,0.00
2019-03-01T20:09:28.617Z,-0.10
2019-03-01T20:11:59.174Z,-0.10
2019-03-01T20:14:30.349Z,-0.10
2019-03-01T20:16:59.235Z,-0.10
2019-03-01T20:19:29.363Z,-0.10
2019-03-01T20:21:59.570Z,-0.10
2019-03-01T20:24:29.689Z,-0.10
2019-03-01T20:27:02.829Z,-0.10
2019-03-01T20:29:30.084Z,-0.10
2019-03-01T20:32:00.459Z,-0.10
2019-03-01T20:34:31.330Z,-0.10
2019-03-01T20:37:01.077Z,-0.20
2019-03-01T20:39:33.182Z,-0.20
2019-03-01T20:42:01.407Z,-0.30
2019-03-01T20:47:01.401Z,-0.30
2019-03-01T20:49:31.854Z,-0.30
2019-03-01T20:52:03.493Z,-0.40
2019-03-01T20:54:32.580Z,-0.50
2019-03-01T20:57:03.169Z,-0.70
2019-03-01T20:59:33.799Z,-1.00
2019-03-01T21:02:06.154Z,-1.00
2019-03-01T21:04:36.636Z,-1.00
2019-03-01T21:07:05.536Z,-1.00
2019-03-01T21:09:37.704Z,-1.00
2019-03-01T21:12:06.660Z,-0.90
2019-03-01T21:14:37.054Z,-1.00
2019-03-01T21:19:37.403Z,-1.30
2019-03-01T21:22:07.578Z,-1.10
2019-03-01T21:24:37.984Z,-1.30
2019-03-01T21:27:08.262Z,-1.40
2019-03-01T21:29:38.642Z,-1.50
2019-03-01T21:32:11.736Z,-1.60
2019-03-01T21:34:39.666Z,-1.60
2019-03-01T21:37:10.109Z,-1.60
2019-03-01T21:39:40.538Z,-1.50
2019-03-01T21:42:11.210Z,-1.60
2019-03-01T21:44:42.706Z,-1.70
2019-03-01T21:47:13.622Z,-1.70
2019-03-01T21:49:42.636Z,-1.80
2019-03-01T21:52:13.179Z,-1.90
2019-03-01T21:54:43.403Z,-2.00
2019-03-01T21:57:13.541Z,-2.10
2019-03-01T22:02:16.877Z,-2.20
2019-03-01T22:04:44.112Z,-2.20
2019-03-01T22:07:14.264Z,-2.30
2019-03-01T22:09:44.524Z,-2.20
2019-03-01T22:12:15.157Z,-2.20
2019-03-01T22:14:45.720Z,-2.10
2019-03-01T22:17:15.920Z,-2.10
2019-03-01T22:19:46.176Z,-2.10
2019-03-01T22:22:16.517Z,-2.10
2019-03-01T22:24:46.951Z,-2.00
2019-03-01T22:27:17.434Z,-1.90
2019-03-01T22:29:48.473Z,-2.00
2019-03-01T22:32:18.246Z,-1.90
2019-03-01T22:34:48.715Z,-1.90
2019-03-01T22:37:18.815Z,-1.90
2019-03-01T22:39:51.448Z,-1.90
2019-03-01T22:42:19.605Z,-1.90
2019-03-01T22:44:49.955Z,-1.90
2019-03-01T22:49:49.978Z,-1.80
2019-03-01T22:52:20.491Z,-1.80
2019-03-01T22:54:50.765Z,-1.90
2019-03-01T22:57:22.656Z,-1.90
2019-03-01T22:59:51.802Z,-2.00
2019-03-01T23:04:53.407Z,-2.10
2019-03-01T23:07:26.434Z,-2.20
2019-03-01T23:09:54.603Z,-2.20
2019-03-01T23:12:25.015Z,-2.30
2019-03-01T23:14:55.515Z,-2.40
2019-03-01T23:17:27.584Z,-2.50
2019-03-01T23:19:56.429Z,-2.50
2019-03-01T23:22:26.866Z,-2.40
2019-03-01T23:24:57.196Z,-2.40
2019-03-01T23:27:28.512Z,-2.50
2019-03-01T23:32:27.821Z,-2.50
2019-03-01T23:34:58.187Z,-2.60
2019-03-01T23:37:28.629Z,-2.60
2019-03-01T23:40:00.976Z,-2.60
2019-03-01T23:42:29.659Z,-2.60
2019-03-01T23:47:29.811Z,-2.80
2019-03-01T23:50:00.599Z,-2.90
2019-03-01T23:52:30.751Z,-2.80
2019-03-01T23:55:01.179Z,-3.00
2019-03-01T23:57:31.527Z,-2.90
